PWSweather.com
Personal Weather Stations
Station Observations

SkegnessGB

Lat: 53.147585, Lon: 0.345774

Elevation: 18

Station Type: Fine Offset WH3080

http://www.skegnessweather.info/

High Low Average
Temperature 49.5°F9.7°F 37.0°F2.8°F 43.3°F6.3°F
Dew Point 40.3°F4.6°F 32.1°F0.1°F 37.0°F2.8°F
Winds 11.5 mph -18.5 mph - 2.4 mph 3.9 mph 6.7 mph 10.8 mph
Wind Gusts 12.5 mph20.1 mph 3.4 mph5.5 mph 7.9 mph12.7 mph
Humidity 85% 70% 79%
Pressure 30.06 in1017.90 in 29.74 in1007.10 in -
Precipitation 0.00 in0.00 in - -
Hour Temp Dew Point Humidity Winds Wind Gusts Pressure Precip Precip Rate Daily Precip Total
12:00 AM 37.9°F3.3°C 33.5°F0.8°C 84% 3.7 mph WSW6.0 kmh WSW 4.9 mph7.9 kmh 30.06 in1017.9 mb 0.00 in0.0 mm 0.00 in0.0 mm 0.00 in0.0 mm
12:10 AM 37.9°F3.3°C 33.5°F0.8°C 84% 4.3 mph WSW6.9 kmh WSW 4.2 mph6.8 kmh 30.06 in1017.9 mb 0.00 in0.0 mm 0.00 in0.0 mm 0.00 in0.0 mm
12:20 AM 37.9°F3.3°C 33.5°F0.8°C 84% 4.3 mph SW6.9 kmh SW 4.9 mph7.9 kmh 30.06 in1017.9 mb 0.00 in0.0 mm 0.00 in0.0 mm 0.00 in0.0 mm
12:30 AM 37.9°F3.3°C 33.5°F0.8°C 84% 3.2 mph SSW5.1 kmh SSW 4.2 mph6.8 kmh 30.05 in1017.6 mb 0.00 in0.0 mm 0.00 in0.0 mm 0.00 in0.0 mm
12:40 AM 37.9°F3.3°C 33.5°F0.8°C 84% 3.6 mph SW5.8 kmh SW 4.9 mph7.9 kmh 30.04 in1017.3 mb 0.00 in0.0 mm 0.00 in0.0 mm 0.00 in0.0 mm
12:50 AM 38.3°F3.5°C 33.9°F1.1°C 84% 4.2 mph W6.8 kmh W 4.9 mph7.9 kmh 30.03 in1016.9 mb 0.00 in0.0 mm 0.00 in0.0 mm 0.00 in0.0 mm
01:00 AM 38.5°F3.6°C 34.1°F1.2°C 84% 7.3 mph SSW11.7 kmh SSW 10.1 mph16.3 kmh 30.03 in1016.9 mb 0.00 in0.0 mm 0.00 in0.0 mm 0.00 in0.0 mm
01:10 AM 38.7°F3.7°C 34.2°F1.2°C 84% 5.8 mph WSW9.3 kmh WSW 9.1 mph14.6 kmh 30.03 in1016.9 mb 0.00 in0.0 mm 0.00 in0.0 mm 0.00 in0.0 mm
01:20 AM 38.7°F3.7°C 34.2°F1.2°C 84% 7.1 mph SSW11.4 kmh SSW 6.6 mph10.6 kmh 30.03 in1016.9 mb 0.00 in0.0 mm 0.00 in0.0 mm 0.00 in0.0 mm
01:30 AM 38.5°F3.6°C 34.1°F1.2°C 84% 6.6 mph SW10.6 kmh SW 8.4 mph13.5 kmh 30.03 in1016.9 mb 0.00 in0.0 mm 0.00 in0.0 mm 0.00 in0.0 mm
01:40 AM 38.3°F3.5°C 33.6°F0.9°C 83% 5.2 mph SW8.4 kmh SW 5.9 mph9.5 kmh 30.02 in1016.6 mb 0.00 in0.0 mm 0.00 in0.0 mm 0.00 in0.0 mm
01:50 AM 38.1°F3.4°C 33.4°F0.8°C 83% 6.0 mph SSW9.7 kmh SSW 6.6 mph10.6 kmh 30.02 in1016.6 mb 0.00 in0.0 mm 0.00 in0.0 mm 0.00 in0.0 mm
02:00 AM 37.9°F3.3°C 33.2°F0.7°C 83% 6.4 mph WSW10.3 kmh WSW 6.6 mph10.6 kmh 30.03 in1016.9 mb 0.00 in0.0 mm 0.00 in0.0 mm 0.00 in0.0 mm
02:10 AM 37.9°F3.3°C 33.2°F0.7°C 83% 5.7 mph N9.2 kmh N 5.9 mph9.5 kmh 30.02 in1016.6 mb 0.00 in0.0 mm 0.00 in0.0 mm 0.00 in0.0 mm
02:20 AM 37.8°F3.2°C 33.1°F0.6°C 83% 5.8 mph SSW9.3 kmh SSW 6.6 mph10.6 kmh 30.02 in1016.6 mb 0.00 in0.0 mm 0.00 in0.0 mm 0.00 in0.0 mm
02:30 AM 37.8°F3.2°C 33.1°F0.6°C 83% 5.7 mph SW9.2 kmh SW 6.6 mph10.6 kmh 30.02 in1016.6 mb 0.00 in0.0 mm 0.00 in0.0 mm 0.00 in0.0 mm
02:40 AM 37.6°F3.1°C 32.6°F0.3°C 82% 5.5 mph S8.9 kmh S 7.6 mph12.2 kmh 30.02 in1016.6 mb 0.00 in0.0 mm 0.00 in0.0 mm 0.00 in0.0 mm
02:50 AM 37.4°F3.0°C 32.4°F0.2°C 82% 4.5 mph SW7.2 kmh SW 5.9 mph9.5 kmh 30.02 in1016.6 mb 0.00 in0.0 mm 0.00 in0.0 mm 0.00 in0.0 mm
03:00 AM 37.2°F2.9°C 32.2°F0.1°C 82% 3.4 mph SW5.5 kmh SW 4.9 mph7.9 kmh 30.02 in1016.6 mb 0.00 in0.0 mm 0.00 in0.0 mm 0.00 in0.0 mm
03:10 AM 37.0°F2.8°C 32.1°F0.1°C 82% 3.3 mph S5.3 kmh S 4.2 mph6.8 kmh 30.01 in1016.3 mb 0.00 in0.0 mm 0.00 in0.0 mm 0.00 in0.0 mm
03:20 AM 37.0°F2.8°C 32.1°F0.1°C 82% 2.4 mph SW3.9 kmh SW 3.4 mph5.5 kmh 30.01 in1016.3 mb 0.00 in0.0 mm 0.00 in0.0 mm 0.00 in0.0 mm
03:30 AM 37.6°F3.1°C 32.9°F0.5°C 83% 4.8 mph SW7.7 kmh SW 8.4 mph13.5 kmh 30.01 in1016.3 mb 0.00 in0.0 mm 0.00 in0.0 mm 0.00 in0.0 mm
03:40 AM 37.8°F3.2°C 33.1°F0.6°C 83% 6.4 mph SSW10.3 kmh SSW 8.4 mph13.5 kmh 30.01 in1016.3 mb 0.00 in0.0 mm 0.00 in0.0 mm 0.00 in0.0 mm
03:50 AM 37.9°F3.3°C 33.2°F0.7°C 83% 7.3 mph WSW11.7 kmh WSW 8.4 mph13.5 kmh 30.00 in1015.9 mb 0.00 in0.0 mm 0.00 in0.0 mm 0.00 in0.0 mm
04:00 AM 38.3°F3.5°C 33.6°F0.9°C 83% 7.9 mph SSW12.7 kmh SSW 9.1 mph14.6 kmh 30.00 in1015.9 mb 0.00 in0.0 mm 0.00 in0.0 mm 0.00 in0.0 mm
04:10 AM 38.1°F3.4°C 33.4°F0.8°C 83% 6.5 mph SW10.5 kmh SW 7.6 mph12.2 kmh 30.00 in1015.9 mb 0.00 in0.0 mm 0.00 in0.0 mm 0.00 in0.0 mm
04:20 AM 38.3°F3.5°C 33.6°F0.9°C 83% 6.6 mph SW10.6 kmh SW 6.6 mph10.6 kmh 29.99 in1015.6 mb 0.00 in0.0 mm 0.00 in0.0 mm 0.00 in0.0 mm
04:30 AM 38.3°F3.5°C 33.6°F0.9°C 83% 6.2 mph SW10.0 kmh SW 6.6 mph10.6 kmh 30.00 in1015.9 mb 0.00 in0.0 mm 0.00 in0.0 mm 0.00 in0.0 mm
04:40 AM 38.1°F3.4°C 33.4°F0.8°C 83% 5.1 mph SW8.2 kmh SW 4.9 mph7.9 kmh 29.99 in1015.6 mb 0.00 in0.0 mm 0.00 in0.0 mm 0.00 in0.0 mm
04:50 AM 38.1°F3.4°C 33.4°F0.8°C 83% 6.0 mph S9.7 kmh S 6.6 mph10.6 kmh 29.99 in1015.6 mb 0.00 in0.0 mm 0.00 in0.0 mm 0.00 in0.0 mm
05:00 AM 38.3°F3.5°C 33.6°F0.9°C 83% 4.6 mph SSW7.4 kmh SSW 4.9 mph7.9 kmh 29.99 in1015.6 mb 0.00 in0.0 mm 0.00 in0.0 mm 0.00 in0.0 mm
05:10 AM 38.8°F3.8°C 34.1°F1.2°C 83% 4.9 mph S7.9 kmh S 5.9 mph9.5 kmh 29.98 in1015.2 mb 0.00 in0.0 mm 0.00 in0.0 mm 0.00 in0.0 mm
05:20 AM 39.0°F3.9°C 34.3°F1.3°C 83% 6.0 mph S9.7 kmh S 7.6 mph12.2 kmh 29.98 in1015.2 mb 0.00 in0.0 mm 0.00 in0.0 mm 0.00 in0.0 mm
05:30 AM 39.4°F4.1°C 34.6°F1.4°C 83% 6.2 mph SW10.0 kmh SW 7.6 mph12.2 kmh 29.98 in1015.2 mb 0.00 in0.0 mm 0.00 in0.0 mm 0.00 in0.0 mm
05:40 AM 39.7°F4.3°C 35.3°F1.8°C 84% 6.6 mph SSW10.6 kmh SSW 7.6 mph12.2 kmh 29.97 in1014.9 mb 0.00 in0.0 mm 0.00 in0.0 mm 0.00 in0.0 mm
05:50 AM 40.1°F4.5°C 35.7°F2.1°C 84% 6.1 mph SSW9.8 kmh SSW 6.6 mph10.6 kmh 29.97 in1014.9 mb 0.00 in0.0 mm 0.00 in0.0 mm 0.00 in0.0 mm
06:00 AM 40.5°F4.7°C 36.0°F2.2°C 84% 7.3 mph SW11.7 kmh SW 8.4 mph13.5 kmh 29.97 in1014.9 mb 0.00 in0.0 mm 0.00 in0.0 mm 0.00 in0.0 mm
06:10 AM 40.8°F4.9°C 36.4°F2.4°C 84% 7.5 mph S12.1 kmh S 7.6 mph12.2 kmh 29.97 in1014.9 mb 0.00 in0.0 mm 0.00 in0.0 mm 0.00 in0.0 mm
06:20 AM 40.8°F4.9°C 36.4°F2.4°C 84% 6.5 mph SSW10.5 kmh SSW 8.4 mph13.5 kmh 29.97 in1014.9 mb 0.00 in0.0 mm 0.00 in0.0 mm 0.00 in0.0 mm
06:30 AM 40.8°F4.9°C 36.4°F2.4°C 84% 6.4 mph WSW10.3 kmh WSW 7.6 mph12.2 kmh 29.97 in1014.9 mb 0.00 in0.0 mm 0.00 in0.0 mm 0.00 in0.0 mm
06:40 AM 41.0°F5.0°C 36.2°F2.3°C 83% 6.8 mph S10.9 kmh S 6.6 mph10.6 kmh 29.97 in1014.9 mb 0.00 in0.0 mm 0.00 in0.0 mm 0.00 in0.0 mm
06:50 AM 41.0°F5.0°C 36.2°F2.3°C 83% 6.5 mph SW10.5 kmh SW 7.6 mph12.2 kmh 29.96 in1014.6 mb 0.00 in0.0 mm 0.00 in0.0 mm 0.00 in0.0 mm
07:00 AM 40.8°F4.9°C 36.1°F2.3°C 83% 7.0 mph SSW11.3 kmh SSW 7.6 mph12.2 kmh 29.97 in1014.9 mb 0.00 in0.0 mm 0.00 in0.0 mm 0.00 in0.0 mm
07:10 AM 40.6°F4.8°C 35.9°F2.2°C 83% 7.0 mph SW11.3 kmh SW 6.6 mph10.6 kmh 29.96 in1014.6 mb 0.00 in0.0 mm 0.00 in0.0 mm 0.00 in0.0 mm
07:20 AM 40.3°F4.6°C 35.5°F1.9°C 83% 6.9 mph SW11.1 kmh SW 9.1 mph14.6 kmh 29.96 in1014.6 mb 0.00 in0.0 mm 0.00 in0.0 mm 0.00 in0.0 mm
07:30 AM 39.9°F4.4°C 35.2°F1.8°C 83% 6.1 mph W9.8 kmh W 7.6 mph12.2 kmh 29.96 in1014.6 mb 0.00 in0.0 mm 0.00 in0.0 mm 0.00 in0.0 mm
07:40 AM 39.7°F4.3°C 35.0°F1.7°C 83% 6.7 mph SW10.8 kmh SW 6.6 mph10.6 kmh 29.96 in1014.6 mb 0.00 in0.0 mm 0.00 in0.0 mm 0.00 in0.0 mm
07:50 AM 39.4°F4.1°C 34.6°F1.4°C 83% 7.1 mph SW11.4 kmh SW 7.6 mph12.2 kmh 29.96 in1014.6 mb 0.00 in0.0 mm 0.00 in0.0 mm 0.00 in0.0 mm
08:00 AM 39.2°F4.0°C 34.5°F1.4°C 83% 5.3 mph SW8.5 kmh SW 5.9 mph9.5 kmh 29.96 in1014.6 mb 0.00 in0.0 mm 0.00 in0.0 mm 0.00 in0.0 mm
08:10 AM 39.0°F3.9°C 34.3°F1.3°C 83% 5.1 mph SW8.2 kmh SW 5.9 mph9.5 kmh 29.96 in1014.6 mb 0.00 in0.0 mm 0.00 in0.0 mm 0.00 in0.0 mm
08:20 AM 39.2°F4.0°C 34.5°F1.4°C 83% 5.8 mph WSW9.3 kmh WSW 6.6 mph10.6 kmh 29.96 in1014.6 mb 0.00 in0.0 mm 0.00 in0.0 mm 0.00 in0.0 mm
08:30 AM 39.4°F4.1°C 34.9°F1.6°C 84% 7.0 mph WSW11.3 kmh WSW 6.6 mph10.6 kmh 29.96 in1014.6 mb 0.00 in0.0 mm 0.00 in0.0 mm 0.00 in0.0 mm
08:40 AM 39.9°F4.4°C 35.5°F1.9°C 84% 7.1 mph SSW11.4 kmh SSW 7.6 mph12.2 kmh 29.96 in1014.6 mb 0.00 in0.0 mm 0.00 in0.0 mm 0.00 in0.0 mm
08:50 AM 40.3°F4.6°C 36.1°F2.3°C 85% 7.5 mph SW12.1 kmh SW 9.1 mph14.6 kmh 29.96 in1014.6 mb 0.00 in0.0 mm 0.00 in0.0 mm 0.00 in0.0 mm
09:00 AM 40.8°F4.9°C 36.7°F2.6°C 85% 7.0 mph W11.3 kmh W 8.4 mph13.5 kmh 29.96 in1014.6 mb 0.00 in0.0 mm 0.00 in0.0 mm 0.00 in0.0 mm
09:10 AM 41.0°F5.0°C 36.8°F2.7°C 85% 5.2 mph WSW8.4 kmh WSW 8.4 mph13.5 kmh 29.96 in1014.6 mb 0.00 in0.0 mm 0.00 in0.0 mm 0.00 in0.0 mm
09:20 AM 41.2°F5.1°C 37.0°F2.8°C 85% 6.8 mph SSW10.9 kmh SSW 10.8 mph17.4 kmh 29.96 in1014.6 mb 0.00 in0.0 mm 0.00 in0.0 mm 0.00 in0.0 mm
09:30 AM 41.7°F5.4°C 37.5°F3.1°C 85% 6.7 mph SW10.8 kmh SW 10.8 mph17.4 kmh 29.96 in1014.6 mb 0.00 in0.0 mm 0.00 in0.0 mm 0.00 in0.0 mm
09:40 AM 42.1°F5.6°C 37.9°F3.3°C 85% 7.7 mph SW12.4 kmh SW 11.8 mph19.0 kmh 29.96 in1014.6 mb 0.00 in0.0 mm 0.00 in0.0 mm 0.00 in0.0 mm
09:50 AM 42.4°F5.8°C 38.2°F3.4°C 85% 7.4 mph SW11.9 kmh SW 7.6 mph12.2 kmh 29.96 in1014.6 mb 0.00 in0.0 mm 0.00 in0.0 mm 0.00 in0.0 mm
10:00 AM 43.0°F6.1°C 38.5°F3.6°C 84% 7.5 mph SSW12.1 kmh SSW 9.1 mph14.6 kmh 29.96 in1014.6 mb 0.00 in0.0 mm 0.00 in0.0 mm 0.00 in0.0 mm
10:10 AM 43.5°F6.4°C 39.0°F3.9°C 84% 8.1 mph S13.0 kmh S 10.1 mph16.3 kmh 29.96 in1014.6 mb 0.00 in0.0 mm 0.00 in0.0 mm 0.00 in0.0 mm
10:20 AM 43.9°F6.6°C 39.1°F3.9°C 83% 8.1 mph SW13.0 kmh SW 10.1 mph16.3 kmh 29.95 in1014.2 mb 0.00 in0.0 mm 0.00 in0.0 mm 0.00 in0.0 mm
10:30 AM 44.1°F6.7°C 39.2°F4.0°C 83% 7.7 mph SW12.4 kmh SW 8.4 mph13.5 kmh 29.96 in1014.6 mb 0.00 in0.0 mm 0.00 in0.0 mm 0.00 in0.0 mm
10:40 AM 44.2°F6.8°C 39.1°F3.9°C 82% 7.2 mph SW11.6 kmh SW 7.6 mph12.2 kmh 29.96 in1014.6 mb 0.00 in0.0 mm 0.00 in0.0 mm 0.00 in0.0 mm
10:50 AM 44.6°F7.0°C 37.8°F3.2°C 77% 7.4 mph SW11.9 kmh SW 7.6 mph12.2 kmh 29.96 in1014.6 mb 0.00 in0.0 mm 0.00 in0.0 mm 0.00 in0.0 mm
11:00 AM 45.1°F7.3°C 38.4°F3.6°C 77% 6.1 mph SSW9.8 kmh SSW 7.6 mph12.2 kmh 29.95 in1014.2 mb 0.00 in0.0 mm 0.00 in0.0 mm 0.00 in0.0 mm
11:10 AM 45.7°F7.6°C 38.5°F3.6°C 76% 5.9 mph S9.5 kmh S 4.9 mph7.9 kmh 29.95 in1014.2 mb 0.00 in0.0 mm 0.00 in0.0 mm 0.00 in0.0 mm
11:20 AM 46.0°F7.8°C 38.6°F3.7°C 75% 7.1 mph WSW11.4 kmh WSW 7.6 mph12.2 kmh 29.95 in1014.2 mb 0.00 in0.0 mm 0.00 in0.0 mm 0.00 in0.0 mm
11:30 AM 46.6°F8.1°C 39.1°F3.9°C 75% 5.7 mph SSW9.2 kmh SSW 6.6 mph10.6 kmh 29.94 in1013.9 mb 0.00 in0.0 mm 0.00 in0.0 mm 0.00 in0.0 mm
11:40 AM 46.9°F8.3°C 39.1°F3.9°C 74% 6.4 mph WSW10.3 kmh WSW 7.6 mph12.2 kmh 29.94 in1013.9 mb 0.00 in0.0 mm 0.00 in0.0 mm 0.00 in0.0 mm
11:50 AM 47.5°F8.6°C 39.6°F4.2°C 74% 5.4 mph SSW8.7 kmh SSW 6.6 mph10.6 kmh 29.93 in1013.5 mb 0.00 in0.0 mm 0.00 in0.0 mm 0.00 in0.0 mm
12:00 PM 48.0°F8.9°C 39.8°F4.3°C 73% 5.9 mph SW9.5 kmh SW 7.6 mph12.2 kmh 29.93 in1013.5 mb 0.00 in0.0 mm 0.00 in0.0 mm 0.00 in0.0 mm
12:10 PM 48.4°F9.1°C 40.1°F4.5°C 73% 6.7 mph SW10.8 kmh SW 9.1 mph14.6 kmh 29.93 in1013.5 mb 0.00 in0.0 mm 0.00 in0.0 mm 0.00 in0.0 mm
12:20 PM 48.9°F9.4°C 40.3°F4.6°C 72% 8.8 mph WSW14.2 kmh WSW 9.1 mph14.6 kmh 29.92 in1013.2 mb 0.00 in0.0 mm 0.00 in0.0 mm 0.00 in0.0 mm
12:30 PM 49.3°F9.6°C 40.3°F4.6°C 71% 8.7 mph SW14.0 kmh SW 12.5 mph20.1 kmh 29.92 in1013.2 mb 0.00 in0.0 mm 0.00 in0.0 mm 0.00 in0.0 mm
12:40 PM 49.3°F9.6°C 40.3°F4.6°C 71% 7.1 mph WSW11.4 kmh WSW 8.4 mph13.5 kmh 29.92 in1013.2 mb 0.00 in0.0 mm 0.00 in0.0 mm 0.00 in0.0 mm
12:50 PM 49.3°F9.6°C 39.9°F4.4°C 70% 8.9 mph W14.3 kmh W 12.5 mph20.1 kmh 29.92 in1013.2 mb 0.00 in0.0 mm 0.00 in0.0 mm 0.00 in0.0 mm
01:00 PM 49.5°F9.7°C 40.1°F4.5°C 70% 8.8 mph SW14.2 kmh SW 11.8 mph19.0 kmh 29.91 in1012.9 mb 0.00 in0.0 mm 0.00 in0.0 mm 0.00 in0.0 mm
01:10 PM 49.5°F9.7°C 40.1°F4.5°C 70% 10.3 mph S16.6 kmh S 10.8 mph17.4 kmh 29.91 in1012.9 mb 0.00 in0.0 mm 0.00 in0.0 mm 0.00 in0.0 mm
01:20 PM 49.3°F9.6°C 39.9°F4.4°C 70% 9.8 mph SSW15.8 kmh SSW 12.5 mph20.1 kmh 29.90 in1012.5 mb 0.00 in0.0 mm 0.00 in0.0 mm 0.00 in0.0 mm
01:30 PM 49.1°F9.5°C 39.7°F4.3°C 70% 7.0 mph WSW11.3 kmh WSW 8.4 mph13.5 kmh 29.90 in1012.5 mb 0.00 in0.0 mm 0.00 in0.0 mm 0.00 in0.0 mm
01:40 PM 48.9°F9.4°C 39.6°F4.2°C 70% 7.4 mph W11.9 kmh W 8.4 mph13.5 kmh 29.90 in1012.5 mb 0.00 in0.0 mm 0.00 in0.0 mm 0.00 in0.0 mm
01:50 PM 48.4°F9.1°C 39.0°F3.9°C 70% 7.6 mph SW12.2 kmh SW 8.4 mph13.5 kmh 29.90 in1012.5 mb 0.00 in0.0 mm 0.00 in0.0 mm 0.00 in0.0 mm
02:00 PM 48.0°F8.9°C 38.7°F3.7°C 70% 9.0 mph S14.5 kmh S 10.8 mph17.4 kmh 29.90 in1012.5 mb 0.00 in0.0 mm 0.00 in0.0 mm 0.00 in0.0 mm
02:10 PM 48.0°F8.9°C 38.7°F3.7°C 70% 6.4 mph WSW10.3 kmh WSW 9.1 mph14.6 kmh 29.89 in1012.2 mb 0.00 in0.0 mm 0.00 in0.0 mm 0.00 in0.0 mm
02:20 PM 48.2°F9.0°C 39.2°F4.0°C 71% 6.9 mph SSW11.1 kmh SSW 9.1 mph14.6 kmh 29.89 in1012.2 mb 0.00 in0.0 mm 0.00 in0.0 mm 0.00 in0.0 mm
02:30 PM 48.6°F9.2°C 39.6°F4.2°C 71% 8.9 mph SW14.3 kmh SW 10.8 mph17.4 kmh 29.89 in1012.2 mb 0.00 in0.0 mm 0.00 in0.0 mm 0.00 in0.0 mm
02:40 PM 48.7°F9.3°C 39.4°F4.1°C 70% 8.0 mph SW12.9 kmh SW 8.4 mph13.5 kmh 29.89 in1012.2 mb 0.00 in0.0 mm 0.00 in0.0 mm 0.00 in0.0 mm
02:50 PM 48.7°F9.3°C 39.4°F4.1°C 70% 7.4 mph SW11.9 kmh SW 10.1 mph16.3 kmh 29.89 in1012.2 mb 0.00 in0.0 mm 0.00 in0.0 mm 0.00 in0.0 mm
03:00 PM 48.4°F9.1°C 39.0°F3.9°C 70% 7.2 mph SW11.6 kmh SW 9.1 mph14.6 kmh 29.89 in1012.2 mb 0.00 in0.0 mm 0.00 in0.0 mm 0.00 in0.0 mm
03:10 PM 48.0°F8.9°C 38.7°F3.7°C 70% 7.0 mph SW11.3 kmh SW 8.4 mph13.5 kmh 29.88 in1011.9 mb 0.00 in0.0 mm 0.00 in0.0 mm 0.00 in0.0 mm
03:20 PM 47.7°F8.7°C 38.7°F3.7°C 71% 7.5 mph SSW12.1 kmh SSW 9.1 mph14.6 kmh 29.88 in1011.9 mb 0.00 in0.0 mm 0.00 in0.0 mm 0.00 in0.0 mm
03:30 PM 47.3°F8.5°C 38.4°F3.6°C 71% 6.1 mph S9.8 kmh S 7.6 mph12.2 kmh 29.88 in1011.9 mb 0.00 in0.0 mm 0.00 in0.0 mm 0.00 in0.0 mm
03:40 PM 47.3°F8.5°C 38.4°F3.6°C 71% 5.9 mph SW9.5 kmh SW 8.4 mph13.5 kmh 29.88 in1011.9 mb 0.00 in0.0 mm 0.00 in0.0 mm 0.00 in0.0 mm
03:50 PM 47.3°F8.5°C 38.7°F3.7°C 72% 5.9 mph SW9.5 kmh SW 5.9 mph9.5 kmh 29.88 in1011.9 mb 0.00 in0.0 mm 0.00 in0.0 mm 0.00 in0.0 mm
04:00 PM 46.9°F8.3°C 38.4°F3.6°C 72% 5.0 mph SW8.0 kmh SW 4.9 mph7.9 kmh 29.88 in1011.9 mb 0.00 in0.0 mm 0.00 in0.0 mm 0.00 in0.0 mm
04:10 PM 46.8°F8.2°C 38.2°F3.4°C 72% 4.5 mph NE7.2 kmh NE 6.6 mph10.6 kmh 29.88 in1011.9 mb 0.00 in0.0 mm 0.00 in0.0 mm 0.00 in0.0 mm
04:20 PM 46.4°F8.0°C 38.2°F3.4°C 73% 5.8 mph SW9.3 kmh SW 6.6 mph10.6 kmh 29.88 in1011.9 mb 0.00 in0.0 mm 0.00 in0.0 mm 0.00 in0.0 mm
04:30 PM 46.2°F7.9°C 38.0°F3.3°C 73% 5.5 mph SSW8.9 kmh SSW 5.9 mph9.5 kmh 29.87 in1011.5 mb 0.00 in0.0 mm 0.00 in0.0 mm 0.00 in0.0 mm
04:40 PM 46.2°F7.9°C 38.4°F3.6°C 74% 6.4 mph WSW10.3 kmh WSW 5.9 mph9.5 kmh 29.87 in1011.5 mb 0.00 in0.0 mm 0.00 in0.0 mm 0.00 in0.0 mm
04:50 PM 46.2°F7.9°C 38.4°F3.6°C 74% 6.7 mph SSW10.8 kmh SSW 6.6 mph10.6 kmh 29.87 in1011.5 mb 0.00 in0.0 mm 0.00 in0.0 mm 0.00 in0.0 mm
05:00 PM 46.4°F8.0°C 38.6°F3.7°C 74% 6.8 mph S10.9 kmh S 10.1 mph16.3 kmh 29.86 in1011.2 mb 0.00 in0.0 mm 0.00 in0.0 mm 0.00 in0.0 mm
05:10 PM 46.2°F7.9°C 38.4°F3.6°C 74% 5.8 mph WNW9.3 kmh WNW 5.9 mph9.5 kmh 29.86 in1011.2 mb 0.00 in0.0 mm 0.00 in0.0 mm 0.00 in0.0 mm
05:20 PM 46.0°F7.8°C 38.2°F3.4°C 74% 6.5 mph WSW10.5 kmh WSW 6.6 mph10.6 kmh 29.86 in1011.2 mb 0.00 in0.0 mm 0.00 in0.0 mm 0.00 in0.0 mm
05:30 PM 45.9°F7.7°C 38.0°F3.3°C 74% 6.8 mph SW10.9 kmh SW 6.6 mph10.6 kmh 29.86 in1011.2 mb 0.00 in0.0 mm 0.00 in0.0 mm 0.00 in0.0 mm
05:40 PM 46.0°F7.8°C 38.6°F3.7°C 75% 7.8 mph SSW12.6 kmh SSW 10.1 mph16.3 kmh 29.86 in1011.2 mb 0.00 in0.0 mm 0.00 in0.0 mm 0.00 in0.0 mm
05:50 PM 46.2°F7.9°C 38.4°F3.6°C 74% 6.6 mph SSW10.6 kmh SSW 10.8 mph17.4 kmh 29.86 in1011.2 mb 0.00 in0.0 mm 0.00 in0.0 mm 0.00 in0.0 mm
06:00 PM 46.4°F8.0°C 38.6°F3.7°C 74% 6.2 mph SW10.0 kmh SW 9.1 mph14.6 kmh 29.86 in1011.2 mb 0.00 in0.0 mm 0.00 in0.0 mm 0.00 in0.0 mm
06:10 PM 46.4°F8.0°C 38.6°F3.7°C 74% 7.5 mph W12.1 kmh W 8.4 mph13.5 kmh 29.85 in1010.8 mb 0.00 in0.0 mm 0.00 in0.0 mm 0.00 in0.0 mm
06:20 PM 46.2°F7.9°C 38.4°F3.6°C 74% 7.3 mph SW11.7 kmh SW 9.1 mph14.6 kmh 29.85 in1010.8 mb 0.00 in0.0 mm 0.00 in0.0 mm 0.00 in0.0 mm
06:30 PM 46.0°F7.8°C 37.9°F3.3°C 73% 7.3 mph SSW11.7 kmh SSW 7.6 mph12.2 kmh 29.85 in1010.8 mb 0.00 in0.0 mm 0.00 in0.0 mm 0.00 in0.0 mm
06:40 PM 46.0°F7.8°C 38.2°F3.4°C 74% 8.3 mph SSW13.4 kmh SSW 7.6 mph12.2 kmh 29.85 in1010.8 mb 0.00 in0.0 mm 0.00 in0.0 mm 0.00 in0.0 mm
06:50 PM 45.9°F7.7°C 38.0°F3.3°C 74% 7.4 mph SSW11.9 kmh SSW 7.6 mph12.2 kmh 29.84 in1010.5 mb 0.00 in0.0 mm 0.00 in0.0 mm 0.00 in0.0 mm
07:00 PM 45.7°F7.6°C 37.9°F3.3°C 74% 7.1 mph SW11.4 kmh SW 7.6 mph12.2 kmh 29.84 in1010.5 mb 0.00 in0.0 mm 0.00 in0.0 mm 0.00 in0.0 mm
07:10 PM 45.5°F7.5°C 38.0°F3.3°C 75% 5.4 mph W8.7 kmh W 6.6 mph10.6 kmh 29.84 in1010.5 mb 0.00 in0.0 mm 0.00 in0.0 mm 0.00 in0.0 mm
07:20 PM 45.5°F7.5°C 38.0°F3.3°C 75% 3.9 mph S6.3 kmh S 6.6 mph10.6 kmh 29.84 in1010.5 mb 0.00 in0.0 mm 0.00 in0.0 mm 0.00 in0.0 mm
07:30 PM 45.5°F7.5°C 38.0°F3.3°C 75% 4.3 mph SW6.9 kmh SW 5.9 mph9.5 kmh 29.83 in1010.2 mb 0.00 in0.0 mm 0.00 in0.0 mm 0.00 in0.0 mm
07:40 PM 45.5°F7.5°C 38.0°F3.3°C 75% 5.4 mph SSW8.7 kmh SSW 6.6 mph10.6 kmh 29.83 in1010.2 mb 0.00 in0.0 mm 0.00 in0.0 mm 0.00 in0.0 mm
07:50 PM 45.5°F7.5°C 38.0°F3.3°C 75% 6.2 mph SW10.0 kmh SW 7.6 mph12.2 kmh 29.83 in1010.2 mb 0.00 in0.0 mm 0.00 in0.0 mm 0.00 in0.0 mm
08:00 PM 45.5°F7.5°C 38.0°F3.3°C 75% 6.3 mph S10.1 kmh S 6.6 mph10.6 kmh 29.83 in1010.2 mb 0.00 in0.0 mm 0.00 in0.0 mm 0.00 in0.0 mm
08:10 PM 45.5°F7.5°C 38.0°F3.3°C 75% 5.3 mph S8.5 kmh S 5.9 mph9.5 kmh 29.82 in1009.8 mb 0.00 in0.0 mm 0.00 in0.0 mm 0.00 in0.0 mm
08:20 PM 45.3°F7.4°C 37.9°F3.3°C 75% 6.2 mph S10.0 kmh S 7.6 mph12.2 kmh 29.81 in1009.5 mb 0.00 in0.0 mm 0.00 in0.0 mm 0.00 in0.0 mm
08:30 PM 45.3°F7.4°C 37.9°F3.3°C 75% 6.1 mph SE9.8 kmh SE 6.6 mph10.6 kmh 29.81 in1009.5 mb 0.00 in0.0 mm 0.00 in0.0 mm 0.00 in0.0 mm
08:40 PM 45.3°F7.4°C 37.9°F3.3°C 75% 6.4 mph SW10.3 kmh SW 9.1 mph14.6 kmh 29.81 in1009.5 mb 0.00 in0.0 mm 0.00 in0.0 mm 0.00 in0.0 mm
08:50 PM 45.5°F7.5°C 38.0°F3.3°C 75% 9.5 mph S15.3 kmh S 10.8 mph17.4 kmh 29.80 in1009.1 mb 0.00 in0.0 mm 0.00 in0.0 mm 0.00 in0.0 mm
09:00 PM 45.7°F7.6°C 37.9°F3.3°C 74% 8.9 mph SW14.3 kmh SW 8.4 mph13.5 kmh 29.80 in1009.1 mb 0.00 in0.0 mm 0.00 in0.0 mm 0.00 in0.0 mm
09:10 PM 45.5°F7.5°C 37.7°F3.2°C 74% 9.0 mph S14.5 kmh S 7.6 mph12.2 kmh 29.80 in1009.1 mb 0.00 in0.0 mm 0.00 in0.0 mm 0.00 in0.0 mm
09:20 PM 45.3°F7.4°C 37.5°F3.1°C 74% 5.8 mph SSE9.3 kmh SSE 10.1 mph16.3 kmh 29.80 in1009.1 mb 0.00 in0.0 mm 0.00 in0.0 mm 0.00 in0.0 mm
09:30 PM 45.3°F7.4°C 37.5°F3.1°C 74% 7.8 mph SW12.6 kmh SW 10.1 mph16.3 kmh 29.79 in1008.8 mb 0.00 in0.0 mm 0.00 in0.0 mm 0.00 in0.0 mm
09:40 PM 45.1°F7.3°C 37.3°F2.9°C 74% 6.6 mph SSE10.6 kmh SSE 7.6 mph12.2 kmh 29.79 in1008.8 mb 0.00 in0.0 mm 0.00 in0.0 mm 0.00 in0.0 mm
09:50 PM 44.6°F7.0°C 36.8°F2.7°C 74% 7.0 mph SW11.3 kmh SW 8.4 mph13.5 kmh 29.79 in1008.8 mb 0.00 in0.0 mm 0.00 in0.0 mm 0.00 in0.0 mm
10:00 PM 44.2°F6.8°C 38.8°F3.8°C 81% 8.3 mph WSW13.4 kmh WSW 9.1 mph14.6 kmh 29.78 in1008.5 mb 0.00 in0.0 mm 0.00 in0.0 mm 0.00 in0.0 mm
10:10 PM 44.2°F6.8°C 38.8°F3.8°C 81% 7.4 mph SSW11.9 kmh SSW 9.1 mph14.6 kmh 29.79 in1008.8 mb 0.00 in0.0 mm 0.00 in0.0 mm 0.00 in0.0 mm
10:20 PM 44.2°F6.8°C 39.1°F3.9°C 82% 6.9 mph SSW11.1 kmh SSW 8.4 mph13.5 kmh 29.78 in1008.5 mb 0.00 in0.0 mm 0.00 in0.0 mm 0.00 in0.0 mm
10:30 PM 44.2°F6.8°C 39.1°F3.9°C 82% 6.8 mph S10.9 kmh S 7.6 mph12.2 kmh 29.77 in1008.1 mb 0.00 in0.0 mm 0.00 in0.0 mm 0.00 in0.0 mm
10:40 PM 44.1°F6.7°C 38.9°F3.8°C 82% 7.5 mph SSW12.1 kmh SSW 7.6 mph12.2 kmh 29.77 in1008.1 mb 0.00 in0.0 mm 0.00 in0.0 mm 0.00 in0.0 mm
10:50 PM 43.7°F6.5°C 38.6°F3.7°C 82% 5.6 mph SSW9.0 kmh SSW 6.6 mph10.6 kmh 29.76 in1007.8 mb 0.00 in0.0 mm 0.00 in0.0 mm 0.00 in0.0 mm
11:00 PM 43.7°F6.5°C 38.6°F3.7°C 82% 7.9 mph S12.7 kmh S 8.4 mph13.5 kmh 29.76 in1007.8 mb 0.00 in0.0 mm 0.00 in0.0 mm 0.00 in0.0 mm
11:10 PM 43.9°F6.6°C 39.1°F3.9°C 83% 8.5 mph S13.7 kmh S 8.4 mph13.5 kmh 29.75 in1007.5 mb 0.00 in0.0 mm 0.00 in0.0 mm 0.00 in0.0 mm
11:20 PM 44.2°F6.8°C 39.4°F4.1°C 83% 9.6 mph SW15.4 kmh SW 10.1 mph16.3 kmh 29.75 in1007.5 mb 0.00 in0.0 mm 0.00 in0.0 mm 0.00 in0.0 mm
11:30 PM 44.2°F6.8°C 39.4°F4.1°C 83% 11.0 mph SW17.7 kmh SW 11.8 mph19.0 kmh 29.75 in1007.5 mb 0.00 in0.0 mm 0.00 in0.0 mm 0.00 in0.0 mm
11:40 PM 44.2°F6.8°C 39.4°F4.1°C 83% 10.7 mph WSW17.2 kmh WSW 11.8 mph19.0 kmh 29.75 in1007.5 mb 0.00 in0.0 mm 0.00 in0.0 mm 0.00 in0.0 mm
11:50 PM 44.4°F6.9°C 39.6°F4.2°C 83% 11.5 mph SSW18.5 kmh SSW 12.5 mph20.1 kmh 29.74 in1007.1 mb 0.00 in0.0 mm 0.00 in0.0 mm 0.00 in0.0 mm